Latest Weather Observations for Banana Bank

IDQ60801

Issued at 4:05 pm EST Wednesday 22 October 2014 (issued every 30 minutes, with the page automatically refreshed every 10 minutes)

About weather observations | Map of weather stations | Latest weather observations for QLD | Other Formats
Station Details ID: 040925 Name: BANANA BANK NORTH BEACON Lat: -27.53 Lon: 153.33 Height: 7.0 m
Data from the previous 72 hours. | See also: Recent months for locations in Queensland
Date/Time
EST
Temp
°C
App
Temp
°C
Dew
Point
Rel
Hum
%
Delta-T
°C
Wind Press
QNH
hPa
Press
MSL
hPa
Rain
since 9 am
mm
Dir
 
Spd
km/h
Gust
km/h
Spd
kts
Gust
kts
22/04:00pm - - - - - ESE 26 32 14 17 - - -
22/03:30pm - - - - - ESE 28 35 15 19 - - -
22/03:00pm - - - - - ESE 26 33 14 18 - - -
22/02:30pm - - - - - SE 28 33 15 18 - - -
22/02:00pm - - - - - SE 28 33 15 18 - - -
22/01:30pm - - - - - SE 28 35 15 19 - - -
22/01:00pm - - - - - SE 26 32 14 17 - - -
22/12:30pm - - - - - SE 24 30 13 16 - - -
22/12:00pm - - - - - SE 24 32 13 17 - - -
22/11:30am - - - - - SE 28 33 15 18 - - -
22/11:00am - - - - - SSE 24 33 13 18 - - -
22/10:30am - - - - - SSE 20 24 11 13 - - -
22/10:00am - - - - - SE 28 35 15 19 - - -
22/09:30am - - - - - SSE 17 22 9 12 - - -
22/09:00am - - - - - SSE 22 30 12 16 - - -
22/08:30am - - - - - S 30 37 16 20 - - -
22/08:00am - - - - - S 17 22 9 12 - - -
22/07:30am - - - - - S 22 30 12 16 - - -
22/07:00am - - - - - S 20 26 11 14 - - -
22/06:30am - - - - - S 22 28 12 15 - - -
22/06:00am - - - - - S 22 28 12 15 - - -
22/05:30am - - - - - S 22 30 12 16 - - -
22/05:00am - - - - - S 24 30 13 16 - - -
22/04:30am - - - - - S 22 26 12 14 - - -
22/04:00am - - - - - SSW 24 30 13 16 - - -
22/03:30am - - - - - S 22 28 12 15 - - -
22/03:00am - - - - - S 24 30 13 16 - - -
22/02:30am - - - - - S 24 32 13 17 - - -
22/02:00am - - - - - S 26 33 14 18 - - -
22/01:30am - - - - - S 22 26 12 14 - - -
22/01:00am - - - - - S 26 32 14 17 - - -
22/12:30am - - - - - S 22 28 12 15 - - -
22/12:00am - - - - - S 20 28 11 15 - - -
 
Date/Time
EST
Temp
°C
App
Temp
°C
Dew
Point
Rel
Hum
%
Delta-T
°C
Wind Press
QNH
hPa
Press
MSL
hPa
Rain
since 9 am
mm
Dir
 
Spd
km/h
Gust
km/h
Spd
kts
Gust
kts
21/11:30pm - - - - - S 30 41 16 22 - - -
21/11:00pm - - - - - S 35 41 19 22 - - -
21/10:30pm - - - - - S 30 35 16 19 - - -
21/10:00pm - - - - - S 37 46 20 25 - - -
21/09:30pm - - - - - S 30 35 16 19 - - -
21/09:00pm - - - - - S 30 37 16 20 - - -
21/08:30pm - - - - - SSE 35 44 19 24 - - -
21/08:00pm - - - - - S 33 44 18 24 - - -
21/07:30pm - - - - - SSE 37 44 20 24 - - -
21/07:00pm - - - - - SSE 35 46 19 25 - - -
21/06:30pm - - - - - SSE 39 48 21 26 - - -
21/06:00pm - - - - - SSE 37 46 20 25 - - -
21/05:30pm - - - - - SSE 39 48 21 26 - - -
21/05:00pm - - - - - SSE 41 50 22 27 - - -
21/04:30pm - - - - - SSE 44 54 24 29 - - -
21/04:00pm - - - - - SSE 44 52 24 28 - - -
21/03:30pm - - - - - SSE 46 54 25 29 - - -
21/03:00pm - - - - - SSE 43 52 23 28 - - -
21/02:30pm - - - - - SSE 43 52 23 28 - - -
21/02:00pm - - - - - SSE 43 50 23 27 - - -
21/01:30pm - - - - - SSE 46 52 25 28 - - -
21/01:00pm - - - - - SSE 41 48 22 26 - - -
21/12:30pm - - - - - SE 43 50 23 27 - - -
21/12:00pm - - - - - SSE 41 50 22 27 - - -
21/11:30am - - - - - SSE 43 56 23 30 - - -
21/11:00am - - - - - SSE 41 48 22 26 - - -
21/10:30am - - - - - SSE 41 50 22 27 - - -
21/10:00am - - - - - SSE 41 50 22 27 - - -
21/09:30am - - - - - SSE 44 56 24 30 - - -
21/09:00am - - - - - SSE 41 52 22 28 - - -
21/08:30am - - - - - S 37 46 20 25 - - -
21/08:00am - - - - - S 33 41 18 22 - - -
21/07:30am - - - - - S 33 41 18 22 - - -
21/07:00am - - - - - SSE 28 33 15 18 - - -
21/06:30am - - - - - SSE 32 41 17 22 - - -
21/06:00am - - - - - SSE 43 54 23 29 - - -
21/05:34am - - - - - S 33 52 18 28 - - -
21/05:30am - - - - - S 28 37 15 20 - - -
21/05:00am - - - - - S 28 32 15 17 - - -
21/04:30am - - - - - S 15 20 8 11 - - -
21/04:00am - - - - - SSE 15 19 8 10 - - -
21/03:30am - - - - - ESE 19 22 10 12 - - -
21/03:00am - - - - - SSE 15 17 8 9 - - -
21/02:30am - - - - - S 20 24 11 13 - - -
21/02:00am - - - - - S 20 24 11 13 - - -
21/01:30am - - - - - SSE 19 24 10 13 - - -
21/01:00am - - - - - SSE 17 20 9 11 - - -
21/12:30am - - - - - SSE 19 24 10 13 - - -
21/12:00am - - - - - SSE 19 24 10 13 - - -
 
Date/Time
EST
Temp
°C
App
Temp
°C
Dew
Point
Rel
Hum
%
Delta-T
°C
Wind Press
QNH
hPa
Press
MSL
hPa
Rain
since 9 am
mm
Dir
 
Spd
km/h
Gust
km/h
Spd
kts
Gust
kts
20/11:30pm - - - - - SSE 20 26 11 14 - - -
20/11:00pm - - - - - SE 24 28 13 15 - - -
20/10:30pm - - - - - S 22 28 12 15 - - -
20/10:00pm - - - - - SSE 22 28 12 15 - - -
20/09:30pm - - - - - SSE 24 30 13 16 - - -
20/09:00pm - - - - - SSE 24 28 13 15 - - -
20/08:30pm - - - - - SSE 20 24 11 13 - - -
20/08:00pm - - - - - SE 17 20 9 11 - - -
20/07:30pm - - - - - ESE 15 19 8 10 - - -
20/07:00pm - - - - - ESE 15 19 8 10 - - -
20/06:30pm - - - - - E 15 19 8 10 - - -
20/06:00pm - - - - - E 15 17 8 9 - - -
20/05:30pm - - - - - ESE 17 19 9 10 - - -
20/05:00pm - - - - - NE 11 15 6 8 - - -
20/04:30pm - - - - - NNE 15 20 8 11 - - -
20/04:00pm - - - - - N 17 20 9 11 - - -
20/03:30pm - - - - - NNE 17 20 9 11 - - -
20/03:00pm - - - - - N 19 22 10 12 - - -
20/02:30pm - - - - - N 19 20 10 11 - - -
20/02:00pm - - - - - N 19 22 10 12 - - -
20/01:30pm - - - - - N 17 20 9 11 - - -
20/01:00pm - - - - - N 17 20 9 11 - - -
20/12:30pm - - - - - N 17 20 9 11 - - -
20/12:00pm - - - - - N 15 19 8 10 - - -
20/11:30am - - - - - N 13 17 7 9 - - -
20/11:00am - - - - - NNW 11 13 6 7 - - -
20/10:30am - - - - - NNW 11 13 6 7 - - -
20/10:00am - - - - - NW 9 13 5 7 - - -
20/09:30am - - - - - NW 9 13 5 7 - - -
20/09:00am - - - - - WSW 4 7 2 4 - - -
20/08:30am - - - - - CALM 0 0 0 0 - - -
20/08:00am - - - - - S 2 4 1 2 - - -
20/07:30am - - - - - S 4 6 2 3 - - -
20/07:00am - - - - - S 7 9 4 5 - - -
20/06:30am - - - - - SSE 7 9 4 5 - - -
20/06:00am - - - - - S 9 9 5 5 - - -
20/05:30am - - - - - S 7 9 4 5 - - -
20/05:00am - - - - - S 6 7 3 4 - - -
20/04:30am - - - - - S 7 9 4 5 - - -
20/04:00am - - - - - SSW 7 11 4 6 - - -
20/03:30am - - - - - SW 7 9 4 5 - - -
20/03:00am - - - - - E 4 6 2 3 - - -
20/02:30am - - - - - E 7 9 4 5 - - -
20/02:00am - - - - - ENE 11 13 6 7 - - -
20/01:30am - - - - - ENE 13 15 7 8 - - -
20/01:00am - - - - - E 11 15 6 8 - - -
20/12:30am - - - - - E 11 13 6 7 - - -
20/12:00am - - - - - ENE 9 11 5 6 - - -
 
Date/Time
EST
Temp
°C
App
Temp
°C
Dew
Point
Rel
Hum
%
Delta-T
°C
Wind Press
QNH
hPa
Press
MSL
hPa
Rain
since 9 am
mm
Dir
 
Spd
km/h
Gust
km/h
Spd
kts
Gust
kts
19/11:30pm - - - - - E 9 11 5 6 - - -
19/11:00pm - - - - - E 7 9 4 5 - - -
19/10:30pm - - - - - E 9 11 5 6 - - -
19/10:00pm - - - - - E 9 11 5 6 - - -
19/09:30pm - - - - - E 11 15 6 8 - - -
19/09:00pm - - - - - E 15 19 8 10 - - -
19/08:30pm - - - - - E 15 17 8 9 - - -
19/08:00pm - - - - - E 15 19 8 10 - - -
19/07:30pm - - - - - E 17 20 9 11 - - -
19/07:00pm - - - - - ESE 17 22 9 12 - - -
19/06:30pm - - - - - ESE 20 26 11 14 - - -
19/06:00pm - - - - - ESE 22 26 12 14 - - -
19/05:30pm - - - - - ESE 26 33 14 18 - - -
19/05:00pm - - - - - ESE 26 32 14 17 - - -
19/04:30pm - - - - - ESE 28 35 15 19 - - -

Other Formats:

Comma delimited format used in spreadsheet applications
http://www.bom.gov.au/fwo/IDQ60801/IDQ60801.94591.axf

JavaScript Object Notation format (JSON) in row-major order
http://www.bom.gov.au/fwo/IDQ60801/IDQ60801.94591.json